sensor_id;sensor_type;location;lat;lon;timestamp;P1;durP1;ratioP1;P2;durP2;ratioP2
36009;SDS011;22076;52.182;5.404;2023-04-01T00:01:21;18.70;;;7.93;;
36009;SDS011;22076;52.182;5.404;2023-04-01T00:03:47;17.63;;;6.78;;
36009;SDS011;22076;52.182;5.404;2023-04-01T00:06:16;22.83;;;8.23;;
36009;SDS011;22076;52.182;5.404;2023-04-01T00:08:43;22.70;;;8.40;;
36009;SDS011;22076;52.182;5.404;2023-04-01T00:11:10;22.83;;;9.00;;
36009;SDS011;22076;52.182;5.404;2023-04-01T00:13:37;22.55;;;8.50;;
36009;SDS011;22076;52.182;5.404;2023-04-01T00:16:04;20.00;;;8.73;;
36009;SDS011;22076;52.182;5.404;2023-04-01T00:18:31;18.70;;;8.07;;
36009;SDS011;22076;52.182;5.404;2023-04-01T00:20:58;26.50;;;9.68;;
36009;SDS011;22076;52.182;5.404;2023-04-01T00:23:26;13.25;;;6.57;;
36009;SDS011;22076;52.182;5.404;2023-04-01T00:25:52;22.50;;;8.13;;
36009;SDS011;22076;52.182;5.404;2023-04-01T00:28:19;17.30;;;6.15;;
36009;SDS011;22076;52.182;5.404;2023-04-01T00:30:46;18.40;;;6.45;;
36009;SDS011;22076;52.182;5.404;2023-04-01T00:33:16;15.70;;;6.43;;
36009;SDS011;22076;52.182;5.404;2023-04-01T00:35:43;20.75;;;7.68;;
36009;SDS011;22076;52.182;5.404;2023-04-01T00:38:10;16.35;;;7.13;;
36009;SDS011;22076;52.182;5.404;2023-04-01T00:40:39;29.02;;;9.05;;
36009;SDS011;22076;52.182;5.404;2023-04-01T00:43:11;14.70;;;7.30;;
36009;SDS011;22076;52.182;5.404;2023-04-01T00:45:39;16.65;;;7.32;;
36009;SDS011;22076;52.182;5.404;2023-04-01T00:48:08;23.75;;;9.07;;
36009;SDS011;22076;52.182;5.404;2023-04-01T00:50:37;19.90;;;8.32;;
36009;SDS011;22076;52.182;5.404;2023-04-01T00:53:05;21.67;;;8.20;;
36009;SDS011;22076;52.182;5.404;2023-04-01T00:55:34;16.70;;;6.70;;
36009;SDS011;22076;52.182;5.404;2023-04-01T00:58:03;20.40;;;7.60;;
36009;SDS011;22076;52.182;5.404;2023-04-01T01:00:31;14.77;;;6.05;;
36009;SDS011;22076;52.182;5.404;2023-04-01T01:02:58;25.58;;;8.73;;
36009;SDS011;22076;52.182;5.404;2023-04-01T01:05:29;18.90;;;7.20;;
36009;SDS011;22076;52.182;5.404;2023-04-01T01:08:01;22.08;;;6.68;;
36009;SDS011;22076;52.182;5.404;2023-04-01T01:10:32;19.15;;;8.27;;
36009;SDS011;22076;52.182;5.404;2023-04-01T01:13:03;19.85;;;8.15;;
36009;SDS011;22076;52.182;5.404;2023-04-01T01:15:36;18.23;;;7.20;;
36009;SDS011;22076;52.182;5.404;2023-04-01T01:18:06;22.83;;;7.78;;
36009;SDS011;22076;52.182;5.404;2023-04-01T01:20:53;17.35;;;6.65;;
36009;SDS011;22076;52.182;5.404;2023-04-01T01:26:06;19.45;;;7.45;;
36009;SDS011;22076;52.182;5.404;2023-04-01T01:28:53;19.88;;;6.90;;
36009;SDS011;22076;52.182;5.404;2023-04-01T01:31:29;13.90;;;6.30;;
36009;SDS011;22076;52.182;5.404;2023-04-01T01:34:02;12.15;;;5.47;;
36009;SDS011;22076;52.182;5.404;2023-04-01T01:36:37;10.40;;;4.47;;
36009;SDS011;22076;52.182;5.404;2023-04-01T01:39:04;14.25;;;5.32;;
36009;SDS011;22076;52.182;5.404;2023-04-01T01:41:33;12.13;;;5.10;;
36009;SDS011;22076;52.182;5.404;2023-04-01T01:44:01;9.75;;;4.80;;
36009;SDS011;22076;52.182;5.404;2023-04-01T01:46:30;10.98;;;4.70;;
36009;SDS011;22076;52.182;5.404;2023-04-01T01:48:57;8.85;;;4.40;;
36009;SDS011;22076;52.182;5.404;2023-04-01T01:51:25;8.30;;;4.35;;
36009;SDS011;22076;52.182;5.404;2023-04-01T01:53:54;10.13;;;5.10;;
36009;SDS011;22076;52.182;5.404;2023-04-01T01:56:22;14.45;;;4.63;;
36009;SDS011;22076;52.182;5.404;2023-04-01T01:58:50;13.75;;;4.88;;
36009;SDS011;22076;52.182;5.404;2023-04-01T02:01:19;11.48;;;5.03;;
36009;SDS011;22076;52.182;5.404;2023-04-01T02:03:48;9.02;;;5.00;;
36009;SDS011;22076;52.182;5.404;2023-04-01T02:06:17;9.05;;;5.32;;
36009;SDS011;22076;52.182;5.404;2023-04-01T02:08:45;8.25;;;4.32;;
36009;SDS011;22076;52.182;5.404;2023-04-01T02:11:16;10.85;;;3.97;;
36009;SDS011;22076;52.182;5.404;2023-04-01T02:13:45;8.30;;;4.45;;
36009;SDS011;22076;52.182;5.404;2023-04-01T02:16:15;7.43;;;3.72;;
36009;SDS011;22076;52.182;5.404;2023-04-01T02:18:46;10.30;;;3.72;;
36009;SDS011;22076;52.182;5.404;2023-04-01T02:21:14;7.18;;;3.63;;
36009;SDS011;22076;52.182;5.404;2023-04-01T02:23:41;5.70;;;3.33;;
36009;SDS011;22076;52.182;5.404;2023-04-01T02:26:08;8.50;;;3.42;;
36009;SDS011;22076;52.182;5.404;2023-04-01T02:28:37;7.47;;;3.25;;
36009;SDS011;22076;52.182;5.404;2023-04-01T02:31:05;10.23;;;3.35;;
36009;SDS011;22076;52.182;5.404;2023-04-01T02:33:32;9.77;;;4.00;;
36009;SDS011;22076;52.182;5.404;2023-04-01T02:35:59;9.85;;;3.58;;
36009;SDS011;22076;52.182;5.404;2023-04-01T02:38:26;7.32;;;3.03;;
36009;SDS011;22076;52.182;5.404;2023-04-01T02:40:56;7.28;;;3.17;;
36009;SDS011;22076;52.182;5.404;2023-04-01T02:43:24;5.32;;;3.33;;
36009;SDS011;22076;52.182;5.404;2023-04-01T02:45:54;7.10;;;3.38;;
36009;SDS011;22076;52.182;5.404;2023-04-01T02:48:20;5.68;;;3.47;;
36009;SDS011;22076;52.182;5.404;2023-04-01T02:50:47;7.30;;;4.15;;
36009;SDS011;22076;52.182;5.404;2023-04-01T02:53:14;10.55;;;4.20;;
36009;SDS011;22076;52.182;5.404;2023-04-01T02:55:41;8.05;;;4.38;;
36009;SDS011;22076;52.182;5.404;2023-04-01T02:58:08;7.07;;;4.63;;
36009;SDS011;22076;52.182;5.404;2023-04-01T03:00:34;7.68;;;4.20;;
36009;SDS011;22076;52.182;5.404;2023-04-01T03:03:02;6.65;;;3.60;;
36009;SDS011;22076;52.182;5.404;2023-04-01T03:05:29;8.60;;;4.03;;
36009;SDS011;22076;52.182;5.404;2023-04-01T03:07:56;9.93;;;4.90;;
36009;SDS011;22076;52.182;5.404;2023-04-01T03:10:23;9.50;;;3.63;;
36009;SDS011;22076;52.182;5.404;2023-04-01T03:12:49;5.97;;;3.63;;
36009;SDS011;22076;52.182;5.404;2023-04-01T03:15:16;6.15;;;3.80;;
36009;SDS011;22076;52.182;5.404;2023-04-01T03:17:43;6.90;;;3.78;;
36009;SDS011;22076;52.182;5.404;2023-04-01T03:20:13;8.75;;;3.80;;
36009;SDS011;22076;52.182;5.404;2023-04-01T03:22:41;14.38;;;4.72;;
36009;SDS011;22076;52.182;5.404;2023-04-01T03:25:08;8.38;;;4.03;;
36009;SDS011;22076;52.182;5.404;2023-04-01T03:27:35;10.25;;;4.95;;
36009;SDS011;22076;52.182;5.404;2023-04-01T03:30:02;12.55;;;6.70;;
36009;SDS011;22076;52.182;5.404;2023-04-01T03:32:28;11.65;;;6.32;;
36009;SDS011;22076;52.182;5.404;2023-04-01T03:34:55;18.92;;;7.35;;
36009;SDS011;22076;52.182;5.404;2023-04-01T03:37:23;11.95;;;5.75;;
36009;SDS011;22076;52.182;5.404;2023-04-01T03:39:50;12.07;;;6.05;;
36009;SDS011;22076;52.182;5.404;2023-04-01T03:42:17;14.80;;;6.60;;
36009;SDS011;22076;52.182;5.404;2023-04-01T03:44:43;15.18;;;7.32;;
36009;SDS011;22076;52.182;5.404;2023-04-01T03:47:10;18.23;;;8.82;;
36009;SDS011;22076;52.182;5.404;2023-04-01T03:49:37;25.88;;;12.25;;
36009;SDS011;22076;52.182;5.404;2023-04-01T03:52:03;22.73;;;9.63;;
36009;SDS011;22076;52.182;5.404;2023-04-01T03:54:31;21.10;;;9.60;;
36009;SDS011;22076;52.182;5.404;2023-04-01T03:56:58;24.52;;;9.73;;
36009;SDS011;22076;52.182;5.404;2023-04-01T03:59:25;31.73;;;12.10;;
36009;SDS011;22076;52.182;5.404;2023-04-01T04:01:51;35.25;;;14.63;;
36009;SDS011;22076;52.182;5.404;2023-04-01T04:04:18;26.45;;;11.65;;
36009;SDS011;22076;52.182;5.404;2023-04-01T04:06:45;31.77;;;12.27;;
36009;SDS011;22076;52.182;5.404;2023-04-01T04:09:11;26.77;;;10.68;;
36009;SDS011;22076;52.182;5.404;2023-04-01T04:11:39;33.05;;;12.50;;
36009;SDS011;22076;52.182;5.404;2023-04-01T04:14:06;22.65;;;10.30;;
36009;SDS011;22076;52.182;5.404;2023-04-01T04:16:35;22.17;;;9.88;;
36009;SDS011;22076;52.182;5.404;2023-04-01T04:19:02;29.63;;;12.75;;
36009;SDS011;22076;52.182;5.404;2023-04-01T04:21:29;22.95;;;10.00;;
36009;SDS011;22076;52.182;5.404;2023-04-01T04:23:55;21.55;;;10.00;;
36009;SDS011;22076;52.182;5.404;2023-04-01T04:26:22;28.70;;;11.13;;
36009;SDS011;22076;52.182;5.404;2023-04-01T04:28:50;33.38;;;13.38;;
36009;SDS011;22076;52.182;5.404;2023-04-01T04:31:18;24.80;;;10.57;;
36009;SDS011;22076;52.182;5.404;2023-04-01T04:33:45;25.83;;;10.52;;
36009;SDS011;22076;52.182;5.404;2023-04-01T04:36:12;19.55;;;9.38;;
36009;SDS011;22076;52.182;5.404;2023-04-01T04:38:39;29.00;;;11.00;;
36009;SDS011;22076;52.182;5.404;2023-04-01T04:41:08;23.23;;;9.52;;
36009;SDS011;22076;52.182;5.404;2023-04-01T04:43:36;21.98;;;10.65;;
36009;SDS011;22076;52.182;5.404;2023-04-01T04:46:05;19.15;;;9.20;;
36009;SDS011;22076;52.182;5.404;2023-04-01T04:48:32;20.52;;;9.95;;
36009;SDS011;22076;52.182;5.404;2023-04-01T04:50:59;19.63;;;8.45;;
36009;SDS011;22076;52.182;5.404;2023-04-01T04:53:26;22.95;;;9.02;;
36009;SDS011;22076;52.182;5.404;2023-04-01T04:55:53;17.35;;;7.70;;
36009;SDS011;22076;52.182;5.404;2023-04-01T04:58:19;17.55;;;8.00;;
36009;SDS011;22076;52.182;5.404;2023-04-01T05:00:46;14.48;;;7.55;;
36009;SDS011;22076;52.182;5.404;2023-04-01T05:03:14;13.90;;;7.13;;
36009;SDS011;22076;52.182;5.404;2023-04-01T05:05:47;16.60;;;7.40;;
36009;SDS011;22076;52.182;5.404;2023-04-01T05:08:14;14.38;;;6.78;;
36009;SDS011;22076;52.182;5.404;2023-04-01T05:10:41;11.90;;;7.00;;
36009;SDS011;22076;52.182;5.404;2023-04-01T05:13:07;14.93;;;7.63;;
36009;SDS011;22076;52.182;5.404;2023-04-01T05:15:34;13.50;;;6.72;;
36009;SDS011;22076;52.182;5.404;2023-04-01T05:18:02;15.25;;;7.90;;
36009;SDS011;22076;52.182;5.404;2023-04-01T05:20:30;16.38;;;7.20;;
36009;SDS011;22076;52.182;5.404;2023-04-01T05:22:57;12.65;;;7.53;;
36009;SDS011;22076;52.182;5.404;2023-04-01T05:25:24;12.88;;;6.70;;
36009;SDS011;22076;52.182;5.404;2023-04-01T05:27:51;15.23;;;8.25;;
36009;SDS011;22076;52.182;5.404;2023-04-01T05:30:17;10.90;;;6.47;;
36009;SDS011;22076;52.182;5.404;2023-04-01T05:32:44;12.32;;;6.60;;
36009;SDS011;22076;52.182;5.404;2023-04-01T05:35:11;10.20;;;5.95;;
36009;SDS011;22076;52.182;5.404;2023-04-01T05:37:39;13.35;;;6.53;;
36009;SDS011;22076;52.182;5.404;2023-04-01T05:40:06;15.35;;;7.10;;
36009;SDS011;22076;52.182;5.404;2023-04-01T05:42:38;11.57;;;5.80;;
36009;SDS011;22076;52.182;5.404;2023-04-01T05:45:05;10.50;;;5.82;;
36009;SDS011;22076;52.182;5.404;2023-04-01T05:47:33;13.13;;;6.35;;
36009;SDS011;22076;52.182;5.404;2023-04-01T05:50:00;12.00;;;6.22;;
36009;SDS011;22076;52.182;5.404;2023-04-01T05:52:26;10.20;;;5.93;;
36009;SDS011;22076;52.182;5.404;2023-04-01T05:54:54;8.85;;;5.03;;
36009;SDS011;22076;52.182;5.404;2023-04-01T05:57:21;11.75;;;5.07;;
36009;SDS011;22076;52.182;5.404;2023-04-01T05:59:48;9.88;;;5.13;;
36009;SDS011;22076;52.182;5.404;2023-04-01T06:02:15;11.27;;;5.70;;
36009;SDS011;22076;52.182;5.404;2023-04-01T06:04:43;11.45;;;5.95;;
36009;SDS011;22076;52.182;5.404;2023-04-01T06:07:11;10.13;;;5.95;;
36009;SDS011;22076;52.182;5.404;2023-04-01T06:09:38;11.57;;;6.10;;
36009;SDS011;22076;52.182;5.404;2023-04-01T06:12:10;11.50;;;5.15;;
36009;SDS011;22076;52.182;5.404;2023-04-01T06:14:47;11.73;;;5.82;;
36009;SDS011;22076;52.182;5.404;2023-04-01T06:17:20;12.15;;;6.15;;
36009;SDS011;22076;52.182;5.404;2023-04-01T06:19:54;13.00;;;6.53;;
36009;SDS011;22076;52.182;5.404;2023-04-01T06:22:30;11.52;;;5.82;;
36009;SDS011;22076;52.182;5.404;2023-04-01T06:25:07;19.65;;;6.95;;
36009;SDS011;22076;52.182;5.404;2023-04-01T06:27:51;10.50;;;5.72;;
36009;SDS011;22076;52.182;5.404;2023-04-01T06:30:30;12.95;;;6.43;;
36009;SDS011;22076;52.182;5.404;2023-04-01T06:33:02;11.80;;;5.88;;
36009;SDS011;22076;52.182;5.404;2023-04-01T06:35:41;12.18;;;6.30;;
36009;SDS011;22076;52.182;5.404;2023-04-01T06:38:37;9.15;;;4.85;;
36009;SDS011;22076;52.182;5.404;2023-04-01T06:41:23;6.63;;;4.13;;
36009;SDS011;22076;52.182;5.404;2023-04-01T06:43:57;8.73;;;4.43;;
36009;SDS011;22076;52.182;5.404;2023-04-01T06:46:29;9.43;;;4.10;;
36009;SDS011;22076;52.182;5.404;2023-04-01T06:49:02;6.37;;;3.77;;
36009;SDS011;22076;52.182;5.404;2023-04-01T06:51:39;7.07;;;3.72;;
36009;SDS011;22076;52.182;5.404;2023-04-01T06:54:10;5.30;;;3.28;;
36009;SDS011;22076;52.182;5.404;2023-04-01T06:56:40;5.72;;;3.33;;
36009;SDS011;22076;52.182;5.404;2023-04-01T06:59:10;7.32;;;3.70;;
36009;SDS011;22076;52.182;5.404;2023-04-01T07:01:39;6.55;;;3.10;;
36009;SDS011;22076;52.182;5.404;2023-04-01T07:04:09;8.55;;;3.60;;
36009;SDS011;22076;52.182;5.404;2023-04-01T07:06:39;7.28;;;3.90;;
36009;SDS011;22076;52.182;5.404;2023-04-01T07:09:10;7.60;;;4.03;;
36009;SDS011;22076;52.182;5.404;2023-04-01T07:11:39;8.32;;;4.32;;
36009;SDS011;22076;52.182;5.404;2023-04-01T07:14:08;8.98;;;4.40;;
36009;SDS011;22076;52.182;5.404;2023-04-01T07:16:43;8.43;;;4.47;;
36009;SDS011;22076;52.182;5.404;2023-04-01T07:19:12;11.05;;;4.97;;
36009;SDS011;22076;52.182;5.404;2023-04-01T07:21:43;10.13;;;4.50;;
36009;SDS011;22076;52.182;5.404;2023-04-01T07:24:14;12.45;;;5.93;;
36009;SDS011;22076;52.182;5.404;2023-04-01T07:26:44;8.75;;;5.15;;
36009;SDS011;22076;52.182;5.404;2023-04-01T07:29:18;13.35;;;5.65;;
36009;SDS011;22076;52.182;5.404;2023-04-01T07:31:51;12.15;;;6.05;;
36009;SDS011;22076;52.182;5.404;2023-04-01T07:34:35;13.57;;;6.32;;
36009;SDS011;22076;52.182;5.404;2023-04-01T07:37:07;13.38;;;5.95;;
36009;SDS011;22076;52.182;5.404;2023-04-01T07:39:39;14.27;;;6.65;;
36009;SDS011;22076;52.182;5.404;2023-04-01T07:42:13;12.88;;;6.97;;
36009;SDS011;22076;52.182;5.404;2023-04-01T07:44:50;14.48;;;7.72;;
36009;SDS011;22076;52.182;5.404;2023-04-01T07:47:25;15.23;;;6.22;;
36009;SDS011;22076;52.182;5.404;2023-04-01T07:50:02;14.52;;;6.90;;
36009;SDS011;22076;52.182;5.404;2023-04-01T07:52:35;14.15;;;7.25;;
36009;SDS011;22076;52.182;5.404;2023-04-01T07:55:09;16.17;;;7.53;;
36009;SDS011;22076;52.182;5.404;2023-04-01T07:57:41;15.55;;;6.80;;
36009;SDS011;22076;52.182;5.404;2023-04-01T08:00:12;15.13;;;8.10;;
36009;SDS011;22076;52.182;5.404;2023-04-01T08:02:47;13.63;;;7.85;;
36009;SDS011;22076;52.182;5.404;2023-04-01T08:05:24;13.02;;;6.80;;
36009;SDS011;22076;52.182;5.404;2023-04-01T08:07:55;13.63;;;6.85;;
36009;SDS011;22076;52.182;5.404;2023-04-01T08:10:29;19.05;;;8.27;;
36009;SDS011;22076;52.182;5.404;2023-04-01T08:13:01;19.77;;;9.00;;
36009;SDS011;22076;52.182;5.404;2023-04-01T08:15:35;16.63;;;7.03;;
36009;SDS011;22076;52.182;5.404;2023-04-01T08:18:08;17.58;;;7.57;;
36009;SDS011;22076;52.182;5.404;2023-04-01T08:20:41;15.10;;;6.93;;
36009;SDS011;22076;52.182;5.404;2023-04-01T08:25:40;13.35;;;6.65;;
36009;SDS011;22076;52.182;5.404;2023-04-01T08:28:13;19.23;;;8.77;;
36009;SDS011;22076;52.182;5.404;2023-04-01T08:30:45;15.65;;;7.68;;
36009;SDS011;22076;52.182;5.404;2023-04-01T08:33:15;18.58;;;8.52;;
36009;SDS011;22076;52.182;5.404;2023-04-01T08:35:46;14.05;;;7.75;;
36009;SDS011;22076;52.182;5.404;2023-04-01T08:38:18;16.27;;;8.32;;
36009;SDS011;22076;52.182;5.404;2023-04-01T08:40:51;19.30;;;10.00;;
36009;SDS011;22076;52.182;5.404;2023-04-01T08:43:25;19.40;;;9.23;;
36009;SDS011;22076;52.182;5.404;2023-04-01T08:49:11;16.13;;;7.93;;
36009;SDS011;22076;52.182;5.404;2023-04-01T08:51:58;20.00;;;9.68;;
36009;SDS011;22076;52.182;5.404;2023-04-01T08:57:45;14.63;;;8.00;;
36009;SDS011;22076;52.182;5.404;2023-04-01T09:00:22;18.17;;;8.45;;
36009;SDS011;22076;52.182;5.404;2023-04-01T09:03:00;18.30;;;10.25;;
36009;SDS011;22076;52.182;5.404;2023-04-01T09:06:03;23.55;;;10.10;;
36009;SDS011;22076;52.182;5.404;2023-04-01T09:08:43;16.98;;;8.65;;
36009;SDS011;22076;52.182;5.404;2023-04-01T09:11:27;14.57;;;8.18;;
36009;SDS011;22076;52.182;5.404;2023-04-01T09:14:06;15.80;;;7.47;;
36009;SDS011;22076;52.182;5.404;2023-04-01T09:16:45;17.83;;;8.95;;
36009;SDS011;22076;52.182;5.404;2023-04-01T09:19:24;14.23;;;7.28;;
36009;SDS011;22076;52.182;5.404;2023-04-01T09:22:01;17.60;;;9.52;;
36009;SDS011;22076;52.182;5.404;2023-04-01T09:27:33;12.73;;;7.13;;
36009;SDS011;22076;52.182;5.404;2023-04-01T09:32:58;22.92;;;10.05;;
36009;SDS011;22076;52.182;5.404;2023-04-01T09:35:46;22.15;;;9.93;;
36009;SDS011;22076;52.182;5.404;2023-04-01T09:38:23;23.45;;;10.18;;
36009;SDS011;22076;52.182;5.404;2023-04-01T09:40:56;20.05;;;9.20;;
36009;SDS011;22076;52.182;5.404;2023-04-01T09:43:27;22.88;;;10.90;;
36009;SDS011;22076;52.182;5.404;2023-04-01T09:45:58;24.45;;;11.18;;
36009;SDS011;22076;52.182;5.404;2023-04-01T09:48:39;21.25;;;10.02;;
36009;SDS011;22076;52.182;5.404;2023-04-01T09:51:17;25.05;;;11.00;;
36009;SDS011;22076;52.182;5.404;2023-04-01T09:53:55;26.13;;;11.77;;
36009;SDS011;22076;52.182;5.404;2023-04-01T10:02:47;27.40;;;12.20;;
36009;SDS011;22076;52.182;5.404;2023-04-01T10:11:42;21.83;;;10.73;;
36009;SDS011;22076;52.182;5.404;2023-04-01T10:14:32;20.70;;;10.75;;
36009;SDS011;22076;52.182;5.404;2023-04-01T10:17:23;18.65;;;8.68;;
36009;SDS011;22076;52.182;5.404;2023-04-01T10:20:02;18.83;;;10.25;;
36009;SDS011;22076;52.182;5.404;2023-04-01T10:22:50;19.48;;;9.85;;
36009;SDS011;22076;52.182;5.404;2023-04-01T10:25:37;25.25;;;12.35;;
36009;SDS011;22076;52.182;5.404;2023-04-01T10:31:27;22.63;;;11.10;;
36009;SDS011;22076;52.182;5.404;2023-04-01T10:34:28;20.90;;;10.43;;
36009;SDS011;22076;52.182;5.404;2023-04-01T10:37:07;21.65;;;10.48;;
36009;SDS011;22076;52.182;5.404;2023-04-01T10:39:54;16.60;;;8.65;;
36009;SDS011;22076;52.182;5.404;2023-04-01T10:42:53;17.83;;;9.15;;
36009;SDS011;22076;52.182;5.404;2023-04-01T10:45:40;16.38;;;9.40;;
36009;SDS011;22076;52.182;5.404;2023-04-01T10:48:31;16.20;;;8.68;;
36009;SDS011;22076;52.182;5.404;2023-04-01T10:51:16;15.85;;;7.50;;
36009;SDS011;22076;52.182;5.404;2023-04-01T10:53:54;12.00;;;6.43;;
36009;SDS011;22076;52.182;5.404;2023-04-01T10:56:33;10.98;;;6.75;;
36009;SDS011;22076;52.182;5.404;2023-04-01T11:05:23;12.15;;;5.15;;
36009;SDS011;22076;52.182;5.404;2023-04-01T11:08:31;9.05;;;4.78;;
36009;SDS011;22076;52.182;5.404;2023-04-01T11:11:20;7.18;;;4.18;;
36009;SDS011;22076;52.182;5.404;2023-04-01T11:13:59;8.15;;;4.03;;
36009;SDS011;22076;52.182;5.404;2023-04-01T11:17:07;7.47;;;4.28;;
36009;SDS011;22076;52.182;5.404;2023-04-01T11:26:22;5.63;;;2.67;;
36009;SDS011;22076;52.182;5.404;2023-04-01T11:32:02;7.70;;;3.47;;
36009;SDS011;22076;52.182;5.404;2023-04-01T11:34:40;5.00;;;2.60;;
36009;SDS011;22076;52.182;5.404;2023-04-01T11:37:19;5.30;;;3.35;;
36009;SDS011;22076;52.182;5.404;2023-04-01T11:39:57;4.50;;;3.20;;
36009;SDS011;22076;52.182;5.404;2023-04-01T11:42:30;5.18;;;3.35;;
36009;SDS011;22076;52.182;5.404;2023-04-01T11:45:06;6.07;;;3.72;;
36009;SDS011;22076;52.182;5.404;2023-04-01T11:47:52;5.90;;;3.85;;
36009;SDS011;22076;52.182;5.404;2023-04-01T11:50:26;6.00;;;3.90;;
36009;SDS011;22076;52.182;5.404;2023-04-01T11:53:12;7.40;;;4.05;;
36009;SDS011;22076;52.182;5.404;2023-04-01T11:55:53;9.63;;;5.55;;
36009;SDS011;22076;52.182;5.404;2023-04-01T12:01:25;10.55;;;6.65;;
36009;SDS011;22076;52.182;5.404;2023-04-01T12:04:00;11.88;;;6.95;;
36009;SDS011;22076;52.182;5.404;2023-04-01T12:06:51;13.88;;;7.45;;
36009;SDS011;22076;52.182;5.404;2023-04-01T12:09:25;15.38;;;7.50;;
36009;SDS011;22076;52.182;5.404;2023-04-01T12:12:03;13.57;;;8.25;;
36009;SDS011;22076;52.182;5.404;2023-04-01T12:14:39;12.90;;;7.40;;
36009;SDS011;22076;52.182;5.404;2023-04-01T12:17:15;16.25;;;8.65;;
36009;SDS011;22076;52.182;5.404;2023-04-01T12:19:48;18.52;;;10.77;;
36009;SDS011;22076;52.182;5.404;2023-04-01T12:22:25;13.88;;;8.25;;
36009;SDS011;22076;52.182;5.404;2023-04-01T12:25:19;20.77;;;10.80;;
36009;SDS011;22076;52.182;5.404;2023-04-01T12:27:54;14.45;;;7.72;;
36009;SDS011;22076;52.182;5.404;2023-04-01T12:30:34;22.85;;;10.95;;
36009;SDS011;22076;52.182;5.404;2023-04-01T12:33:27;22.85;;;11.13;;
36009;SDS011;22076;52.182;5.404;2023-04-01T12:36:04;23.25;;;12.75;;
36009;SDS011;22076;52.182;5.404;2023-04-01T12:38:38;19.92;;;10.85;;
36009;SDS011;22076;52.182;5.404;2023-04-01T12:41:13;25.38;;;11.73;;
36009;SDS011;22076;52.182;5.404;2023-04-01T12:43:58;24.60;;;12.20;;
36009;SDS011;22076;52.182;5.404;2023-04-01T12:52:50;15.63;;;8.68;;
36009;SDS011;22076;52.182;5.404;2023-04-01T12:55:40;22.58;;;11.30;;
36009;SDS011;22076;52.182;5.404;2023-04-01T13:01:30;19.95;;;10.15;;
36009;SDS011;22076;52.182;5.404;2023-04-01T13:04:25;16.50;;;7.82;;
36009;SDS011;22076;52.182;5.404;2023-04-01T13:07:11;10.82;;;6.15;;
36009;SDS011;22076;52.182;5.404;2023-04-01T13:09:45;12.38;;;6.85;;
36009;SDS011;22076;52.182;5.404;2023-04-01T13:12:18;13.73;;;6.78;;
36009;SDS011;22076;52.182;5.404;2023-04-01T13:15:00;11.13;;;6.05;;
36009;SDS011;22076;52.182;5.404;2023-04-01T13:17:38;14.93;;;7.22;;
36009;SDS011;22076;52.182;5.404;2023-04-01T13:20:13;17.50;;;8.65;;
36009;SDS011;22076;52.182;5.404;2023-04-01T13:22:45;12.32;;;6.82;;
36009;SDS011;22076;52.182;5.404;2023-04-01T13:25:20;13.88;;;6.18;;
36009;SDS011;22076;52.182;5.404;2023-04-01T13:27:53;14.63;;;6.57;;
36009;SDS011;22076;52.182;5.404;2023-04-01T13:30:24;13.68;;;6.15;;
36009;SDS011;22076;52.182;5.404;2023-04-01T13:32:56;10.35;;;5.57;;
36009;SDS011;22076;52.182;5.404;2023-04-01T13:35:29;9.98;;;5.82;;
36009;SDS011;22076;52.182;5.404;2023-04-01T13:40:55;11.95;;;6.38;;
36009;SDS011;22076;52.182;5.404;2023-04-01T13:43:25;13.02;;;7.28;;
36009;SDS011;22076;52.182;5.404;2023-04-01T13:46:06;10.98;;;6.30;;
36009;SDS011;22076;52.182;5.404;2023-04-01T13:48:46;14.80;;;6.63;;
36009;SDS011;22076;52.182;5.404;2023-04-01T13:51:35;11.23;;;6.50;;
36009;SDS011;22076;52.182;5.404;2023-04-01T13:54:27;16.10;;;7.03;;
36009;SDS011;22076;52.182;5.404;2023-04-01T13:57:22;11.88;;;6.65;;
36009;SDS011;22076;52.182;5.404;2023-04-01T13:59:59;10.35;;;5.65;;
36009;SDS011;22076;52.182;5.404;2023-04-01T14:02:42;9.93;;;5.80;;
36009;SDS011;22076;52.182;5.404;2023-04-01T14:05:23;9.57;;;5.50;;
36009;SDS011;22076;52.182;5.404;2023-04-01T14:07:57;13.15;;;6.45;;
36009;SDS011;22076;52.182;5.404;2023-04-01T14:10:31;11.63;;;6.72;;
36009;SDS011;22076;52.182;5.404;2023-04-01T14:13:04;9.70;;;6.32;;
36009;SDS011;22076;52.182;5.404;2023-04-01T14:15:41;9.93;;;6.18;;
36009;SDS011;22076;52.182;5.404;2023-04-01T14:18:17;10.75;;;7.00;;
36009;SDS011;22076;52.182;5.404;2023-04-01T14:20:53;8.73;;;5.50;;
36009;SDS011;22076;52.182;5.404;2023-04-01T14:23:30;11.43;;;6.68;;
36009;SDS011;22076;52.182;5.404;2023-04-01T14:29:08;10.02;;;6.00;;
36009;SDS011;22076;52.182;5.404;2023-04-01T14:31:44;9.82;;;6.00;;
36009;SDS011;22076;52.182;5.404;2023-04-01T14:34:23;8.45;;;5.57;;
36009;SDS011;22076;52.182;5.404;2023-04-01T14:37:03;8.73;;;6.03;;
36009;SDS011;22076;52.182;5.404;2023-04-01T14:42:38;11.00;;;6.07;;
36009;SDS011;22076;52.182;5.404;2023-04-01T14:45:20;12.15;;;6.60;;
36009;SDS011;22076;52.182;5.404;2023-04-01T14:47:56;10.68;;;5.72;;
36009;SDS011;22076;52.182;5.404;2023-04-01T14:50:26;8.95;;;5.90;;
36009;SDS011;22076;52.182;5.404;2023-04-01T14:52:57;10.70;;;6.35;;
36009;SDS011;22076;52.182;5.404;2023-04-01T14:55:31;8.45;;;5.47;;
36009;SDS011;22076;52.182;5.404;2023-04-01T14:58:00;8.68;;;5.63;;
36009;SDS011;22076;52.182;5.404;2023-04-01T15:00:40;9.68;;;5.47;;
36009;SDS011;22076;52.182;5.404;2023-04-01T15:03:13;7.10;;;4.88;;
36009;SDS011;22076;52.182;5.404;2023-04-01T15:05:44;8.20;;;5.38;;
36009;SDS011;22076;52.182;5.404;2023-04-01T15:08:19;6.72;;;4.72;;
36009;SDS011;22076;52.182;5.404;2023-04-01T15:13:54;8.55;;;5.07;;
36009;SDS011;22076;52.182;5.404;2023-04-01T15:16:25;9.52;;;5.80;;
36009;SDS011;22076;52.182;5.404;2023-04-01T15:19:01;10.67;;;6.47;;
36009;SDS011;22076;52.182;5.404;2023-04-01T15:21:42;8.10;;;5.07;;
36009;SDS011;22076;52.182;5.404;2023-04-01T15:24:16;7.75;;;5.25;;
36009;SDS011;22076;52.182;5.404;2023-04-01T15:27:03;8.63;;;5.82;;
36009;SDS011;22076;52.182;5.404;2023-04-01T15:29:40;7.40;;;5.60;;
36009;SDS011;22076;52.182;5.404;2023-04-01T15:32:16;8.65;;;5.80;;
36009;SDS011;22076;52.182;5.404;2023-04-01T15:34:44;9.63;;;5.70;;
36009;SDS011;22076;52.182;5.404;2023-04-01T15:37:17;8.63;;;5.38;;
36009;SDS011;22076;52.182;5.404;2023-04-01T15:39:51;8.13;;;5.25;;
36009;SDS011;22076;52.182;5.404;2023-04-01T15:42:32;6.10;;;4.85;;
36009;SDS011;22076;52.182;5.404;2023-04-01T15:45:09;7.03;;;4.40;;
36009;SDS011;22076;52.182;5.404;2023-04-01T15:47:42;6.10;;;4.05;;
36009;SDS011;22076;52.182;5.404;2023-04-01T15:53:18;5.10;;;3.60;;
36009;SDS011;22076;52.182;5.404;2023-04-01T15:55:56;4.82;;;3.00;;
36009;SDS011;22076;52.182;5.404;2023-04-01T15:58:33;4.10;;;3.13;;
36009;SDS011;22076;52.182;5.404;2023-04-01T16:01:08;5.43;;;3.92;;
36009;SDS011;22076;52.182;5.404;2023-04-01T16:03:44;4.68;;;3.85;;
36009;SDS011;22076;52.182;5.404;2023-04-01T16:11:40;4.55;;;3.50;;
36009;SDS011;22076;52.182;5.404;2023-04-01T16:14:14;6.47;;;3.65;;
36009;SDS011;22076;52.182;5.404;2023-04-01T16:16:52;7.35;;;4.35;;
36009;SDS011;22076;52.182;5.404;2023-04-01T16:19:27;5.32;;;3.40;;
36009;SDS011;22076;52.182;5.404;2023-04-01T16:21:59;6.00;;;3.70;;
36009;SDS011;22076;52.182;5.404;2023-04-01T16:24:31;4.95;;;3.50;;
36009;SDS011;22076;52.182;5.404;2023-04-01T16:27:02;7.65;;;4.20;;
36009;SDS011;22076;52.182;5.404;2023-04-01T16:29:32;5.97;;;3.90;;
36009;SDS011;22076;52.182;5.404;2023-04-01T16:32:13;5.53;;;3.55;;
36009;SDS011;22076;52.182;5.404;2023-04-01T16:34:44;8.13;;;4.13;;